createdAt,value
2017-01-28T00:02:03.410Z,18.8
2017-01-28T00:04:35.816Z,18.8
2017-01-28T00:07:09.136Z,18.8
2017-01-28T00:09:41.944Z,18.8
2017-01-28T00:12:14.332Z,18.8
2017-01-28T00:14:46.722Z,18.8
2017-01-28T00:17:19.560Z,18.7
2017-01-28T00:19:51.968Z,18.7
2017-01-28T00:22:24.357Z,18.7
2017-01-28T00:24:56.767Z,18.7
2017-01-28T00:27:29.156Z,18.7
2017-01-28T00:30:01.560Z,18.7
2017-01-28T00:32:34.380Z,18.7
2017-01-28T00:35:07.209Z,18.7
2017-01-28T00:37:39.622Z,18.7
2017-01-28T00:40:12.035Z,18.7
2017-01-28T00:42:44.511Z,18.6
2017-01-28T00:45:16.921Z,18.6
2017-01-28T00:47:49.308Z,18.6
2017-01-28T00:50:21.846Z,18.6
2017-01-28T00:52:54.234Z,18.6
2017-01-28T00:55:26.629Z,18.6
2017-01-28T00:57:59.051Z,18.6
2017-01-28T01:00:31.439Z,18.6
2017-01-28T01:03:04.323Z,18.6
2017-01-28T01:05:36.724Z,18.6
2017-01-28T01:08:09.127Z,18.6
2017-01-28T01:10:41.946Z,18.6
2017-01-28T01:13:14.353Z,18.7
2017-01-28T01:15:46.758Z,18.7
2017-01-28T01:18:19.590Z,18.7
2017-01-28T01:20:52.169Z,18.7
2017-01-28T01:23:24.588Z,18.7
2017-01-28T01:25:56.983Z,18.7
2017-01-28T01:28:29.370Z,18.8
2017-01-28T01:31:01.764Z,18.8
2017-01-28T01:33:34.160Z,18.8
2017-01-28T01:36:06.580Z,18.8
2017-01-28T01:38:38.971Z,18.8
2017-01-28T01:41:11.370Z,18.8
2017-01-28T01:43:43.770Z,18.8
2017-01-28T01:46:16.165Z,18.8
2017-01-28T01:48:48.555Z,18.8
2017-01-28T01:51:20.935Z,18.8
2017-01-28T01:53:53.319Z,18.8
2017-01-28T01:56:25.707Z,18.8
2017-01-28T01:58:58.128Z,18.8
2017-01-28T02:01:30.961Z,18.8
2017-01-28T02:04:03.360Z,18.8
2017-01-28T02:06:36.185Z,18.8
2017-01-28T02:09:08.595Z,18.8
2017-01-28T02:11:40.976Z,18.8
2017-01-28T02:14:13.364Z,18.8
2017-01-28T02:16:45.737Z,18.8
2017-01-28T02:19:18.583Z,18.8
2017-01-28T02:21:50.984Z,18.8
2017-01-28T02:24:23.381Z,18.8
2017-01-28T02:26:55.781Z,18.8
2017-01-28T02:29:28.176Z,18.8
2017-01-28T02:32:00.556Z,18.8
2017-01-28T02:34:32.940Z,18.9
2017-01-28T02:37:05.782Z,18.9
2017-01-28T02:39:38.186Z,18.9
2017-01-28T02:42:11.029Z,18.9
2017-01-28T02:44:43.826Z,18.9
2017-01-28T02:47:17.078Z,18.9
2017-01-28T02:49:49.474Z,18.9
2017-01-28T02:52:22.284Z,18.9
2017-01-28T02:54:54.668Z,18.9
2017-01-28T02:57:27.489Z,18.9
2017-01-28T02:59:59.882Z,18.9
2017-01-28T03:02:32.273Z,18.9
2017-01-28T03:05:05.119Z,18.9
2017-01-28T03:07:37.493Z,18.9
2017-01-28T03:10:09.882Z,18.9
2017-01-28T03:12:42.693Z,18.9
2017-01-28T03:15:15.520Z,18.9
2017-01-28T03:17:47.918Z,18.9
2017-01-28T03:20:20.307Z,18.9
2017-01-28T03:22:52.699Z,18.9
2017-01-28T03:25:25.525Z,18.9
2017-01-28T03:27:57.914Z,18.9
2017-01-28T03:30:30.326Z,18.9
2017-01-28T03:33:02.728Z,18.9
2017-01-28T03:35:35.551Z,18.8
2017-01-28T03:38:07.920Z,18.8
2017-01-28T03:40:40.303Z,18.8
2017-01-28T03:43:13.129Z,18.8
2017-01-28T03:45:45.523Z,18.8
2017-01-28T03:48:17.913Z,18.8
2017-01-28T03:50:50.304Z,18.8
2017-01-28T03:53:23.551Z,18.8
2017-01-28T03:55:55.964Z,18.8
2017-01-28T03:58:28.382Z,18.8
2017-01-28T04:01:00.761Z,18.8
2017-01-28T04:03:33.153Z,18.8
2017-01-28T04:06:05.549Z,18.8
2017-01-28T04:08:37.948Z,18.8
2017-01-28T04:11:10.391Z,18.8
2017-01-28T04:13:42.780Z,18.8
2017-01-28T04:16:15.173Z,18.8
2017-01-28T04:18:48.025Z,18.8
2017-01-28T04:21:20.415Z,18.8
2017-01-28T04:23:52.814Z,18.8
2017-01-28T04:26:25.206Z,18.8
2017-01-28T04:28:57.610Z,18.8
2017-01-28T04:31:29.988Z,18.8
2017-01-28T04:34:02.810Z,18.8
2017-01-28T04:36:35.200Z,18.8
2017-01-28T04:39:07.595Z,18.8
2017-01-28T04:41:40.396Z,18.8
2017-01-28T04:44:12.790Z,18.8
2017-01-28T04:46:45.178Z,18.8
2017-01-28T04:49:17.580Z,18.8
2017-01-28T04:51:49.966Z,18.8
2017-01-28T04:54:22.391Z,18.8
2017-01-28T04:56:54.794Z,18.8
2017-01-28T04:59:27.203Z,18.8
2017-01-28T05:01:59.596Z,18.8
2017-01-28T05:04:32.004Z,18.8
2017-01-28T05:07:04.388Z,18.8
2017-01-28T05:09:37.231Z,18.8
2017-01-28T05:12:09.628Z,18.8
2017-01-28T05:14:42.481Z,18.8
2017-01-28T05:17:14.872Z,18.8
2017-01-28T05:19:47.270Z,18.8
2017-01-28T05:22:19.673Z,18.8
2017-01-28T05:24:52.046Z,18.8
2017-01-28T05:27:24.449Z,18.8
2017-01-28T05:29:56.842Z,18.8
2017-01-28T05:32:29.221Z,18.8
2017-01-28T05:35:01.610Z,18.8
2017-01-28T05:37:34.013Z,18.8
2017-01-28T05:40:06.404Z,18.8
2017-01-28T05:42:38.797Z,18.8
2017-01-28T05:45:11.187Z,18.8
2017-01-28T05:47:43.569Z,18.8
2017-01-28T05:50:15.966Z,18.8
2017-01-28T05:52:48.777Z,18.8
2017-01-28T05:55:21.182Z,18.8
2017-01-28T05:57:53.582Z,18.8
2017-01-28T06:00:26.383Z,18.8
2017-01-28T06:02:58.791Z,18.8
2017-01-28T06:05:31.613Z,18.8
2017-01-28T06:08:03.991Z,18.7
2017-01-28T06:10:36.388Z,18.7
2017-01-28T06:13:08.785Z,18.7
2017-01-28T06:15:41.602Z,18.7
2017-01-28T06:18:14.844Z,18.7
2017-01-28T06:20:47.223Z,18.7
2017-01-28T06:23:20.037Z,18.7
2017-01-28T06:25:52.428Z,18.7
2017-01-28T06:28:24.803Z,18.7
2017-01-28T06:30:57.198Z,18.7
2017-01-28T06:33:29.798Z,18.7
2017-01-28T06:36:02.618Z,18.7
2017-01-28T06:38:35.009Z,18.7
2017-01-28T06:41:07.412Z,18.7
2017-01-28T06:43:39.789Z,18.7
2017-01-28T06:46:12.588Z,18.7
2017-01-28T06:48:45.411Z,18.7
2017-01-28T06:51:17.821Z,18.7
2017-01-28T06:53:50.228Z,18.7
2017-01-28T06:56:22.601Z,18.7
2017-01-28T06:58:54.986Z,18.7
2017-01-28T07:01:27.815Z,18.7
2017-01-28T07:04:00.657Z,18.7
2017-01-28T07:06:33.063Z,18.7
2017-01-28T07:09:05.465Z,18.7
2017-01-28T07:11:37.858Z,18.7
2017-01-28T07:14:10.666Z,18.7
2017-01-28T07:16:43.067Z,18.7
2017-01-28T07:19:16.740Z,18.7
2017-01-28T07:21:49.146Z,18.7
2017-01-28T07:24:21.532Z,18.7
2017-01-28T07:26:53.935Z,18.7
2017-01-28T07:29:26.337Z,18.7
2017-01-28T07:31:59.137Z,18.7
2017-01-28T07:34:31.963Z,18.7
2017-01-28T07:37:05.185Z,18.7
2017-01-28T07:39:37.577Z,18.7
2017-01-28T07:42:09.973Z,18.7
2017-01-28T07:44:42.377Z,18.7
2017-01-28T07:47:14.748Z,18.7
2017-01-28T07:49:47.119Z,18.7
2017-01-28T07:52:19.520Z,18.7
2017-01-28T07:54:51.913Z,18.7
2017-01-28T07:57:24.742Z,18.7
2017-01-28T07:59:57.115Z,18.7
2017-01-28T08:02:29.525Z,18.7
2017-01-28T08:05:01.923Z,18.7
2017-01-28T08:07:34.753Z,18.7
2017-01-28T08:10:07.160Z,18.7
2017-01-28T08:12:39.556Z,18.7
2017-01-28T08:15:11.973Z,18.7
2017-01-28T08:17:44.376Z,18.7
2017-01-28T08:20:16.832Z,18.7
2017-01-28T08:22:49.648Z,18.7
2017-01-28T08:25:22.036Z,18.7
2017-01-28T08:27:54.427Z,18.7
2017-01-28T08:30:26.833Z,18.6
2017-01-28T08:32:59.319Z,18.6
2017-01-28T08:35:32.172Z,18.6
2017-01-28T08:38:04.998Z,18.6
2017-01-28T08:40:37.405Z,18.6
2017-01-28T08:43:10.227Z,18.6
2017-01-28T08:45:43.107Z,18.6
2017-01-28T08:48:15.614Z,18.6
2017-01-28T08:50:48.007Z,18.6
2017-01-28T08:53:20.402Z,18.6
2017-01-28T08:55:52.809Z,18.6
2017-01-28T08:58:25.219Z,18.6
2017-01-28T09:00:57.608Z,18.6
2017-01-28T09:03:29.997Z,18.6
2017-01-28T09:06:02.434Z,18.6
2017-01-28T09:08:34.833Z,18.6
2017-01-28T09:11:07.300Z,18.6
2017-01-28T09:13:39.881Z,18.6
2017-01-28T09:16:12.289Z,18.7
2017-01-28T09:18:44.693Z,18.7
2017-01-28T09:21:17.093Z,18.7
2017-01-28T09:23:49.481Z,18.7
2017-01-28T09:26:21.860Z,18.7
2017-01-28T09:28:54.686Z,18.7
2017-01-28T09:31:27.719Z,18.7
2017-01-28T09:34:00.139Z,18.7
2017-01-28T09:36:32.946Z,18.7
2017-01-28T09:39:05.324Z,18.7
2017-01-28T09:41:37.733Z,18.7
2017-01-28T09:44:10.132Z,18.8
2017-01-28T09:46:42.521Z,18.8
2017-01-28T09:49:15.640Z,18.8
2017-01-28T09:51:48.063Z,18.8
2017-01-28T09:54:20.467Z,18.8
2017-01-28T09:56:52.867Z,18.8
2017-01-28T09:59:25.280Z,18.8
2017-01-28T10:01:57.718Z,18.8
2017-01-28T10:04:30.534Z,18.8
2017-01-28T10:07:03.753Z,18.8
2017-01-28T10:09:36.606Z,18.8
2017-01-28T10:12:09.012Z,18.8
2017-01-28T10:14:42.275Z,18.8
2017-01-28T10:17:14.686Z,18.8
2017-01-28T10:19:47.102Z,18.8
2017-01-28T10:22:19.489Z,18.8
2017-01-28T10:24:51.859Z,18.8
2017-01-28T10:27:24.287Z,18.7
2017-01-28T10:29:56.662Z,18.7
2017-01-28T10:32:29.101Z,18.7
2017-01-28T10:35:01.914Z,18.7
2017-01-28T10:37:34.310Z,18.7
2017-01-28T10:40:06.706Z,18.7
2017-01-28T10:42:39.104Z,18.7
2017-01-28T10:45:11.514Z,18.7
2017-01-28T10:47:43.903Z,18.7
2017-01-28T10:50:16.289Z,18.6
2017-01-28T10:52:48.676Z,18.6
2017-01-28T10:55:21.921Z,18.6
2017-01-28T10:57:55.161Z,18.6
2017-01-28T11:00:27.548Z,18.6
2017-01-28T11:02:59.961Z,18.6
2017-01-28T11:05:32.357Z,18.7
2017-01-28T11:08:04.756Z,18.7
2017-01-28T11:10:37.164Z,18.7
2017-01-28T11:13:09.556Z,18.7
2017-01-28T11:15:42.365Z,18.7
2017-01-28T11:18:15.181Z,18.8
2017-01-28T11:20:47.596Z,18.8
2017-01-28T11:23:20.862Z,18.8
2017-01-28T11:25:53.696Z,18.8
2017-01-28T11:28:26.081Z,18.8
2017-01-28T11:30:58.478Z,18.9
2017-01-28T11:33:30.867Z,18.9
2017-01-28T11:36:03.259Z,18.9
2017-01-28T11:38:35.642Z,18.9
2017-01-28T11:41:08.454Z,18.9
2017-01-28T11:43:40.855Z,18.9
2017-01-28T11:46:13.669Z,18.9
2017-01-28T11:48:46.076Z,18.9
2017-01-28T11:51:18.897Z,18.9
2017-01-28T11:53:51.702Z,18.9
2017-01-28T11:56:24.109Z,18.9
2017-01-28T11:58:56.504Z,18.9
2017-01-28T12:01:28.930Z,18.9
2017-01-28T12:04:01.311Z,18.9
2017-01-28T12:06:34.170Z,18.9
2017-01-28T12:09:06.562Z,18.9
2017-01-28T12:11:39.410Z,18.9
2017-01-28T12:14:12.249Z,18.9
2017-01-28T12:16:44.649Z,18.9
2017-01-28T12:19:17.047Z,18.9
2017-01-28T12:21:49.446Z,18.9
2017-01-28T12:24:21.837Z,18.9
2017-01-28T12:26:54.248Z,18.9
2017-01-28T12:29:26.641Z,18.9
2017-01-28T12:31:59.023Z,18.9
2017-01-28T12:34:31.836Z,18.9
2017-01-28T12:37:04.652Z,18.9
2017-01-28T12:39:37.051Z,18.9
2017-01-28T12:42:09.871Z,18.8
2017-01-28T12:44:42.265Z,18.8
2017-01-28T12:47:14.661Z,18.8
2017-01-28T12:49:47.032Z,18.7
2017-01-28T12:52:19.431Z,18.7
2017-01-28T12:54:52.277Z,18.6
2017-01-28T12:57:24.672Z,18.6
2017-01-28T12:59:57.521Z,18.6
2017-01-28T13:02:29.907Z,18.5
2017-01-28T13:05:02.319Z,18.5
2017-01-28T13:07:34.909Z,18.5
2017-01-28T13:10:08.165Z,18.5
2017-01-28T13:12:40.981Z,18.5
2017-01-28T13:15:13.847Z,18.5
2017-01-28T13:17:46.247Z,18.5
2017-01-28T13:20:19.291Z,18.4
2017-01-28T13:22:52.217Z,18.4
2017-01-28T13:25:24.742Z,18.4
2017-01-28T13:27:57.150Z,18.4
2017-01-28T13:30:29.549Z,18.4
2017-01-28T13:33:02.818Z,18.4
2017-01-28T13:35:35.765Z,18.4
2017-01-28T13:38:08.154Z,18.4
2017-01-28T13:40:40.546Z,18.4
2017-01-28T13:43:12.944Z,18.4
2017-01-28T13:45:45.346Z,18.4
2017-01-28T13:48:17.914Z,18.4
2017-01-28T13:50:50.288Z,18.4
2017-01-28T13:53:22.686Z,18.4
2017-01-28T13:55:55.078Z,18.4
2017-01-28T13:58:27.481Z,18.4
2017-01-28T14:00:59.864Z,18.4
2017-01-28T14:03:32.685Z,18.4
2017-01-28T14:06:05.076Z,18.4
2017-01-28T14:08:37.472Z,18.4
2017-01-28T14:11:09.920Z,18.4
2017-01-28T14:13:42.307Z,18.4
2017-01-28T14:16:14.702Z,18.3
2017-01-28T14:18:47.165Z,18.3
2017-01-28T14:21:19.546Z,18.3
2017-01-28T14:23:51.959Z,18.3
2017-01-28T14:26:24.345Z,18.3
2017-01-28T14:28:56.954Z,18.2
2017-01-28T14:31:29.756Z,18.2
2017-01-28T14:34:02.581Z,18.2
2017-01-28T14:36:34.975Z,18.1
2017-01-28T14:39:12.036Z,18.1
2017-01-28T14:41:46.607Z,18.1
2017-01-28T14:44:19.190Z,18
2017-01-28T14:46:51.574Z,18
2017-01-28T14:49:24.392Z,18
2017-01-28T14:51:56.773Z,18
2017-01-28T14:54:29.172Z,18
2017-01-28T14:57:01.554Z,17.9
2017-01-28T14:59:33.951Z,17.9
2017-01-28T15:02:06.352Z,17.9
2017-01-28T15:04:38.738Z,17.9
2017-01-28T15:07:11.581Z,17.9
2017-01-28T15:09:43.978Z,18
2017-01-28T15:12:16.384Z,18
2017-01-28T15:14:48.807Z,18
2017-01-28T15:17:21.831Z,18
2017-01-28T15:19:54.210Z,18
2017-01-28T15:22:26.603Z,18
2017-01-28T15:24:59.011Z,18
2017-01-28T15:27:31.386Z,18
2017-01-28T15:30:03.797Z,18
2017-01-28T15:32:36.590Z,18.1
2017-01-28T15:35:08.984Z,18.1
2017-01-28T15:37:41.375Z,18.1
2017-01-28T15:40:13.774Z,18.1
2017-01-28T15:42:46.581Z,18.1
2017-01-28T15:45:18.983Z,18.1
2017-01-28T15:47:51.367Z,18.1
2017-01-28T15:50:23.759Z,18.1
2017-01-28T15:52:56.565Z,18.1
2017-01-28T15:55:29.377Z,18.1
2017-01-28T15:58:02.599Z,18.2
2017-01-28T16:00:35.001Z,18.2
2017-01-28T16:03:07.376Z,18.2
2017-01-28T16:05:39.790Z,18.2
2017-01-28T16:08:12.191Z,18.3
2017-01-28T16:10:44.721Z,18.3
2017-01-28T16:13:17.151Z,18.3
2017-01-28T16:15:50.856Z,18.4
2017-01-28T16:18:23.793Z,18.4
2017-01-28T16:20:56.201Z,18.4
2017-01-28T16:23:28.613Z,18.5
2017-01-28T16:26:01.429Z,18.5
2017-01-28T16:28:34.248Z,18.5
2017-01-28T16:31:06.650Z,18.5
2017-01-28T16:33:39.052Z,18.6
2017-01-28T16:36:11.869Z,18.6
2017-01-28T16:38:44.249Z,18.6
2017-01-28T16:41:16.648Z,18.6
2017-01-28T16:43:49.036Z,18.7
2017-01-28T16:46:21.463Z,18.7
2017-01-28T16:48:53.853Z,18.7
2017-01-28T16:51:26.251Z,18.7
2017-01-28T16:53:59.064Z,18.7
2017-01-28T16:56:31.465Z,18.7
2017-01-28T16:59:04.270Z,18.7
2017-01-28T17:01:36.896Z,18.7
2017-01-28T17:04:09.308Z,18.7
2017-01-28T17:06:41.705Z,18.7
2017-01-28T17:09:14.523Z,18.7
2017-01-28T17:11:46.903Z,18.7
2017-01-28T17:14:19.295Z,18.7
2017-01-28T17:16:51.684Z,18.7
2017-01-28T17:19:24.065Z,18.7
2017-01-28T17:21:57.558Z,18.7
2017-01-28T17:24:30.399Z,18.7
2017-01-28T17:27:02.945Z,18.7
2017-01-28T17:29:35.742Z,18.7
2017-01-28T17:32:09.339Z,18.7
2017-01-28T17:34:41.782Z,18.7
2017-01-28T17:37:14.214Z,18.7
2017-01-28T17:39:47.012Z,18.7
2017-01-28T17:42:19.429Z,18.7
2017-01-28T17:44:52.238Z,18.7
2017-01-28T17:47:24.617Z,18.7
2017-01-28T17:49:57.014Z,18.7
2017-01-28T17:52:29.843Z,18.7
2017-01-28T17:55:02.225Z,18.7
2017-01-28T17:57:34.628Z,18.6
2017-01-28T18:00:07.009Z,18.6
2017-01-28T18:02:39.851Z,18.6
2017-01-28T18:05:12.685Z,18.6
2017-01-28T18:07:45.073Z,18.6
2017-01-28T18:10:17.503Z,18.6
2017-01-28T18:12:49.981Z,18.6
2017-01-28T18:15:22.471Z,18.6
2017-01-28T18:17:55.276Z,18.6
2017-01-28T18:20:27.669Z,18.6
2017-01-28T18:23:00.066Z,18.6
2017-01-28T18:25:32.455Z,18.6
2017-01-28T18:28:05.464Z,18.5
2017-01-28T18:30:37.851Z,18.5
2017-01-28T18:33:10.239Z,18.5
2017-01-28T18:35:42.619Z,18.5
2017-01-28T18:38:15.422Z,18.5
2017-01-28T18:40:47.797Z,18.5
2017-01-28T18:43:20.181Z,18.5
2017-01-28T18:45:52.593Z,18.5
2017-01-28T18:48:26.039Z,18.4
2017-01-28T18:50:58.436Z,18.4
2017-01-28T18:53:30.858Z,18.4
2017-01-28T18:56:03.233Z,18.4
2017-01-28T18:58:35.628Z,18.4
2017-01-28T19:01:08.862Z,18.4
2017-01-28T19:03:41.690Z,18.4
2017-01-28T19:06:14.092Z,18.4
2017-01-28T19:08:46.475Z,18.4
2017-01-28T19:11:18.878Z,18.4
2017-01-28T19:13:51.274Z,18.4
2017-01-28T19:16:23.681Z,18.4
2017-01-28T19:18:56.084Z,18.4
2017-01-28T19:21:28.479Z,18.4
2017-01-28T19:24:01.335Z,18.4
2017-01-28T19:26:33.727Z,18.4
2017-01-28T19:29:06.130Z,18.4
2017-01-28T19:31:38.508Z,18.4
2017-01-28T19:34:10.909Z,18.5
2017-01-28T19:36:43.293Z,18.5
2017-01-28T19:39:15.709Z,18.5
2017-01-28T19:41:48.074Z,18.5
2017-01-28T19:44:20.465Z,18.5
2017-01-28T19:46:52.856Z,18.5
2017-01-28T19:49:25.238Z,18.5
2017-01-28T19:51:57.616Z,18.5
2017-01-28T19:54:30.439Z,18.5
2017-01-28T19:57:02.822Z,18.5
2017-01-28T19:59:35.218Z,18.5
2017-01-28T20:02:07.590Z,18.5
2017-01-28T20:04:40.414Z,18.6
2017-01-28T20:07:12.784Z,18.6
2017-01-28T20:09:45.610Z,18.6
2017-01-28T20:12:18.012Z,18.6
2017-01-28T20:14:50.418Z,18.6
2017-01-28T20:17:23.261Z,18.6
2017-01-28T20:19:55.683Z,18.6
2017-01-28T20:22:28.927Z,18.6
2017-01-28T20:25:01.335Z,18.6
2017-01-28T20:27:33.727Z,18.6
2017-01-28T20:30:06.143Z,18.6
2017-01-28T20:32:38.956Z,18.6
2017-01-28T20:35:11.364Z,18.6
2017-01-28T20:37:43.750Z,18.6
2017-01-28T20:40:16.145Z,18.6
2017-01-28T20:42:48.527Z,18.6
2017-01-28T20:45:20.935Z,18.6
2017-01-28T20:47:53.330Z,18.6
2017-01-28T20:50:25.724Z,18.6
2017-01-28T20:52:58.515Z,18.6
2017-01-28T20:55:30.889Z,18.6
2017-01-28T20:58:03.281Z,18.6
2017-01-28T21:00:35.679Z,18.6
2017-01-28T21:03:08.516Z,18.6
2017-01-28T21:05:41.325Z,18.6
2017-01-28T21:08:13.736Z,18.6
2017-01-28T21:10:47.423Z,18.6
2017-01-28T21:13:19.824Z,18.6
2017-01-28T21:15:52.213Z,18.6
2017-01-28T21:18:24.618Z,18.6
2017-01-28T21:20:57.000Z,18.6
2017-01-28T21:23:29.828Z,18.6
2017-01-28T21:26:02.646Z,18.6
2017-01-28T21:28:35.030Z,18.6
2017-01-28T21:31:07.434Z,18.6
2017-01-28T21:33:39.800Z,18.6
2017-01-28T21:36:12.186Z,18.6
2017-01-28T21:38:44.579Z,18.6
2017-01-28T21:41:16.970Z,18.6
2017-01-28T21:43:49.360Z,18.6
2017-01-28T21:46:22.168Z,18.6
2017-01-28T21:48:54.573Z,18.6
2017-01-28T21:51:26.957Z,18.6
2017-01-28T21:53:59.356Z,18.6
2017-01-28T21:56:32.365Z,18.6
2017-01-28T21:59:05.422Z,18.6
2017-01-28T22:01:38.230Z,18.6
2017-01-28T22:04:10.630Z,18.6
2017-01-28T22:06:43.042Z,18.6
2017-01-28T22:09:16.290Z,18.6
2017-01-28T22:11:49.172Z,18.6
2017-01-28T22:14:22.514Z,18.6
2017-01-28T22:16:56.566Z,18.6
2017-01-28T22:19:30.876Z,18.6
2017-01-28T22:22:04.138Z,18.6
2017-01-28T22:24:36.944Z,18.6
2017-01-28T22:27:10.436Z,18.6
2017-01-28T22:29:42.984Z,18.6
2017-01-28T22:32:15.420Z,18.6
2017-01-28T22:34:48.377Z,18.6
2017-01-28T22:37:20.909Z,18.6
2017-01-28T22:39:53.307Z,18.6
2017-01-28T22:42:26.239Z,18.6
2017-01-28T22:44:58.639Z,18.6
2017-01-28T22:47:31.024Z,18.6
2017-01-28T22:50:03.444Z,18.6
2017-01-28T22:52:35.844Z,18.6
2017-01-28T22:55:08.727Z,18.6
2017-01-28T22:57:41.546Z,18.6
2017-01-28T23:00:13.958Z,18.6
2017-01-28T23:02:46.975Z,18.6
2017-01-28T23:05:19.369Z,18.6
2017-01-28T23:07:52.247Z,18.6
2017-01-28T23:10:24.685Z,18.6
2017-01-28T23:12:57.522Z,18.6
2017-01-28T23:15:30.437Z,18.6
2017-01-28T23:18:03.254Z,18.6
2017-01-28T23:20:35.692Z,18.6
2017-01-28T23:23:08.123Z,18.6
2017-01-28T23:25:41.423Z,18.6
2017-01-28T23:28:14.240Z,18.6
2017-01-28T23:30:46.660Z,18.6
2017-01-28T23:33:19.067Z,18.6
2017-01-28T23:35:51.866Z,18.6
2017-01-28T23:38:24.281Z,18.6
2017-01-28T23:40:56.664Z,18.6
2017-01-28T23:43:29.504Z,18.6
2017-01-28T23:46:02.335Z,18.6
2017-01-28T23:48:35.171Z,18.6
2017-01-28T23:51:07.560Z,18.6
2017-01-28T23:53:40.208Z,18.6
2017-01-28T23:56:13.080Z,18.6
2017-01-28T23:58:45.489Z,18.6
